sensor_id;sensor_type;location;lat;lon;timestamp;pressure;altitude;pressure_sealevel;temperature;humidity
4598;BME280;62772;48.646;8.906;2023-04-07T00:02:03;96255.03;;;5.07;100.00
4598;BME280;62772;48.646;8.906;2023-04-07T00:07:04;96248.84;;;4.82;100.00
4598;BME280;62772;48.646;8.906;2023-04-07T00:12:04;96240.16;;;4.77;100.00
4598;BME280;62772;48.646;8.906;2023-04-07T00:17:05;96239.25;;;4.52;100.00
4598;BME280;62772;48.646;8.906;2023-04-07T00:22:05;96236.31;;;4.48;100.00
4598;BME280;62772;48.646;8.906;2023-04-07T00:27:06;96230.53;;;4.46;100.00
4598;BME280;62772;48.646;8.906;2023-04-07T00:32:06;96223.84;;;4.59;100.00
4598;BME280;62772;48.646;8.906;2023-04-07T00:37:07;96216.50;;;4.51;100.00
4598;BME280;62772;48.646;8.906;2023-04-07T00:42:07;96210.66;;;4.54;100.00
4598;BME280;62772;48.646;8.906;2023-04-07T00:47:07;96210.25;;;4.31;100.00
4598;BME280;62772;48.646;8.906;2023-04-07T00:52:08;96193.66;;;4.10;100.00
4598;BME280;62772;48.646;8.906;2023-04-07T00:57:10;96193.22;;;3.98;100.00
4598;BME280;62772;48.646;8.906;2023-04-07T01:02:28;96185.28;;;3.93;100.00
4598;BME280;62772;48.646;8.906;2023-04-07T01:07:40;96180.59;;;4.40;100.00
4598;BME280;62772;48.646;8.906;2023-04-07T01:12:56;96176.97;;;4.70;100.00
4598;BME280;62772;48.646;8.906;2023-04-07T01:18:14;96173.34;;;4.11;100.00
4598;BME280;62772;48.646;8.906;2023-04-07T01:23:47;96167.44;;;4.24;100.00
4598;BME280;62772;48.646;8.906;2023-04-07T01:34:17;96162.22;;;4.09;100.00
4598;BME280;62772;48.646;8.906;2023-04-07T01:39:18;96157.03;;;3.93;100.00
4598;BME280;62772;48.646;8.906;2023-04-07T01:44:20;96148.84;;;3.90;100.00
4598;BME280;62772;48.646;8.906;2023-04-07T01:49:22;96152.66;;;4.23;100.00
4598;BME280;62772;48.646;8.906;2023-04-07T01:54:24;96144.03;;;4.02;100.00
4598;BME280;62772;48.646;8.906;2023-04-07T01:59:30;96139.53;;;4.03;100.00
4598;BME280;62772;48.646;8.906;2023-04-07T02:04:43;96133.50;;;3.92;100.00
4598;BME280;62772;48.646;8.906;2023-04-07T02:09:50;96132.25;;;4.29;100.00
4598;BME280;62772;48.646;8.906;2023-04-07T02:14:53;96132.72;;;4.81;100.00
4598;BME280;62772;48.646;8.906;2023-04-07T02:19:55;96132.78;;;5.05;100.00
4598;BME280;62772;48.646;8.906;2023-04-07T02:24:56;96118.69;;;5.09;100.00
4598;BME280;62772;48.646;8.906;2023-04-07T02:30:00;96120.75;;;4.88;100.00
4598;BME280;62772;48.646;8.906;2023-04-07T02:35:00;96114.13;;;4.57;100.00
4598;BME280;62772;48.646;8.906;2023-04-07T02:40:01;96108.91;;;4.41;100.00
4598;BME280;62772;48.646;8.906;2023-04-07T02:45:03;96106.16;;;4.17;100.00
4598;BME280;62772;48.646;8.906;2023-04-07T02:50:05;96109.34;;;4.14;100.00
4598;BME280;62772;48.646;8.906;2023-04-07T02:55:08;96099.91;;;4.03;100.00
4598;BME280;62772;48.646;8.906;2023-04-07T03:00:10;96104.91;;;4.04;100.00
4598;BME280;62772;48.646;8.906;2023-04-07T03:05:39;96103.06;;;4.05;100.00
4598;BME280;62772;48.646;8.906;2023-04-07T03:10:42;96093.47;;;4.19;100.00
4598;BME280;62772;48.646;8.906;2023-04-07T03:15:43;96088.63;;;4.31;100.00
4598;BME280;62772;48.646;8.906;2023-04-07T03:20:47;96078.91;;;4.22;100.00
4598;BME280;62772;48.646;8.906;2023-04-07T03:25:48;96073.22;;;4.04;100.00
4598;BME280;62772;48.646;8.906;2023-04-07T03:30:49;96071.25;;;4.54;100.00
4598;BME280;62772;48.646;8.906;2023-04-07T03:35:52;96074.06;;;4.34;100.00
4598;BME280;62772;48.646;8.906;2023-04-07T03:40:54;96075.28;;;4.12;100.00
4598;BME280;62772;48.646;8.906;2023-04-07T03:45:55;96071.94;;;3.91;100.00
4598;BME280;62772;48.646;8.906;2023-04-07T03:50:58;96062.84;;;4.13;100.00
4598;BME280;62772;48.646;8.906;2023-04-07T03:55:59;96062.34;;;4.11;100.00
4598;BME280;62772;48.646;8.906;2023-04-07T04:01:20;96057.94;;;3.91;100.00
4598;BME280;62772;48.646;8.906;2023-04-07T04:06:23;96059.84;;;3.80;100.00
4598;BME280;62772;48.646;8.906;2023-04-07T04:11:26;96051.38;;;3.88;100.00
4598;BME280;62772;48.646;8.906;2023-04-07T04:16:31;96045.22;;;3.98;100.00
4598;BME280;62772;48.646;8.906;2023-04-07T04:21:36;96049.03;;;4.21;100.00
4598;BME280;62772;48.646;8.906;2023-04-07T04:26:37;96046.75;;;4.44;100.00
4598;BME280;62772;48.646;8.906;2023-04-07T04:31:44;96047.56;;;4.05;100.00
4598;BME280;62772;48.646;8.906;2023-04-07T04:36:45;96041.31;;;3.90;100.00
4598;BME280;62772;48.646;8.906;2023-04-07T04:41:46;96050.13;;;4.15;100.00
4598;BME280;62772;48.646;8.906;2023-04-07T04:46:47;96042.81;;;4.02;100.00
4598;BME280;62772;48.646;8.906;2023-04-07T04:51:48;96051.25;;;3.59;100.00
4598;BME280;62772;48.646;8.906;2023-04-07T04:56:50;96057.47;;;3.84;100.00
4598;BME280;62772;48.646;8.906;2023-04-07T05:01:51;96047.28;;;4.06;100.00
4598;BME280;62772;48.646;8.906;2023-04-07T05:06:52;96051.25;;;4.04;100.00
4598;BME280;62772;48.646;8.906;2023-04-07T05:11:56;96053.72;;;4.29;100.00
4598;BME280;62772;48.646;8.906;2023-04-07T05:16:58;96047.34;;;4.01;100.00
4598;BME280;62772;48.646;8.906;2023-04-07T05:22:02;96044.78;;;4.25;100.00
4598;BME280;62772;48.646;8.906;2023-04-07T05:27:06;96048.00;;;4.51;100.00
4598;BME280;62772;48.646;8.906;2023-04-07T05:32:07;96046.44;;;4.16;100.00
4598;BME280;62772;48.646;8.906;2023-04-07T05:37:09;96048.19;;;3.86;100.00
4598;BME280;62772;48.646;8.906;2023-04-07T05:42:10;96047.66;;;4.29;100.00
4598;BME280;62772;48.646;8.906;2023-04-07T05:47:12;96060.28;;;3.97;100.00
4598;BME280;62772;48.646;8.906;2023-04-07T05:52:14;96057.63;;;4.03;100.00
4598;BME280;62772;48.646;8.906;2023-04-07T05:57:19;96059.03;;;3.90;100.00
4598;BME280;62772;48.646;8.906;2023-04-07T06:02:21;96055.53;;;3.99;100.00
4598;BME280;62772;48.646;8.906;2023-04-07T06:07:22;96064.53;;;3.93;100.00
4598;BME280;62772;48.646;8.906;2023-04-07T06:12:22;96055.31;;;3.91;100.00
4598;BME280;62772;48.646;8.906;2023-04-07T06:17:23;96051.06;;;3.95;100.00
4598;BME280;62772;48.646;8.906;2023-04-07T06:22:23;96059.16;;;4.14;100.00
4598;BME280;62772;48.646;8.906;2023-04-07T06:27:24;96059.03;;;4.29;100.00
4598;BME280;62772;48.646;8.906;2023-04-07T06:32:24;96057.69;;;4.32;100.00
4598;BME280;62772;48.646;8.906;2023-04-07T06:37:25;96063.97;;;4.41;100.00
4598;BME280;62772;48.646;8.906;2023-04-07T06:42:27;96055.31;;;4.65;100.00
4598;BME280;62772;48.646;8.906;2023-04-07T06:47:39;96046.66;;;4.88;100.00
4598;BME280;62772;48.646;8.906;2023-04-07T06:52:40;96052.47;;;5.15;100.00
4598;BME280;62772;48.646;8.906;2023-04-07T06:57:40;96053.78;;;5.17;100.00
4598;BME280;62772;48.646;8.906;2023-04-07T07:02:41;96054.91;;;5.11;100.00
4598;BME280;62772;48.646;8.906;2023-04-07T07:07:42;96050.50;;;5.25;100.00
4598;BME280;62772;48.646;8.906;2023-04-07T07:12:42;96058.59;;;5.10;100.00
4598;BME280;62772;48.646;8.906;2023-04-07T07:17:43;96058.56;;;5.39;100.00
4598;BME280;62772;48.646;8.906;2023-04-07T07:22:43;96052.13;;;5.21;100.00
4598;BME280;62772;48.646;8.906;2023-04-07T07:27:44;96052.69;;;5.18;100.00
4598;BME280;62772;48.646;8.906;2023-04-07T07:32:45;96054.91;;;5.35;100.00
4598;BME280;62772;48.646;8.906;2023-04-07T07:37:45;96064.72;;;5.35;100.00
4598;BME280;62772;48.646;8.906;2023-04-07T07:42:47;96056.41;;;5.41;100.00
4598;BME280;62772;48.646;8.906;2023-04-07T07:47:47;96056.13;;;5.67;100.00
4598;BME280;62772;48.646;8.906;2023-04-07T07:52:48;96060.50;;;5.96;100.00
4598;BME280;62772;48.646;8.906;2023-04-07T07:57:48;96064.88;;;5.87;100.00
4598;BME280;62772;48.646;8.906;2023-04-07T08:02:49;96058.09;;;5.99;100.00
4598;BME280;62772;48.646;8.906;2023-04-07T08:07:51;96062.50;;;6.09;100.00
4598;BME280;62772;48.646;8.906;2023-04-07T08:12:52;96055.69;;;6.22;100.00
4598;BME280;62772;48.646;8.906;2023-04-07T08:17:52;96065.69;;;6.44;100.00
4598;BME280;62772;48.646;8.906;2023-04-07T08:22:53;96063.22;;;6.67;100.00
4598;BME280;62772;48.646;8.906;2023-04-07T08:27:53;96068.38;;;6.91;100.00
4598;BME280;62772;48.646;8.906;2023-04-07T08:32:54;96071.94;;;7.00;100.00
4598;BME280;62772;48.646;8.906;2023-04-07T08:37:55;96070.97;;;7.10;100.00
4598;BME280;62772;48.646;8.906;2023-04-07T08:42:59;96062.09;;;7.01;100.00
4598;BME280;62772;48.646;8.906;2023-04-07T08:48:03;96070.19;;;7.23;100.00
4598;BME280;62772;48.646;8.906;2023-04-07T08:53:11;96068.84;;;7.26;100.00
4598;BME280;62772;48.646;8.906;2023-04-07T08:58:13;96065.88;;;7.28;100.00
4598;BME280;62772;48.646;8.906;2023-04-07T09:03:15;96073.66;;;7.52;100.00
4598;BME280;62772;48.646;8.906;2023-04-07T09:08:17;96077.22;;;7.75;100.00
4598;BME280;62772;48.646;8.906;2023-04-07T09:13:17;96077.97;;;7.61;100.00
4598;BME280;62772;48.646;8.906;2023-04-07T09:18:18;96076.28;;;7.93;100.00
4598;BME280;62772;48.646;8.906;2023-04-07T09:23:27;96071.41;;;8.09;100.00
4598;BME280;62772;48.646;8.906;2023-04-07T09:28:41;96070.72;;;8.17;100.00
4598;BME280;62772;48.646;8.906;2023-04-07T09:33:42;96070.78;;;8.26;100.00
4598;BME280;62772;48.646;8.906;2023-04-07T09:38:44;96081.78;;;8.47;100.00
4598;BME280;62772;48.646;8.906;2023-04-07T09:43:45;96080.22;;;8.46;100.00
4598;BME280;62772;48.646;8.906;2023-04-07T09:48:46;96072.06;;;8.65;100.00
4598;BME280;62772;48.646;8.906;2023-04-07T09:53:49;96081.25;;;8.59;100.00
4598;BME280;62772;48.646;8.906;2023-04-07T09:58:50;96083.56;;;8.38;100.00
4598;BME280;62772;48.646;8.906;2023-04-07T10:03:51;96083.50;;;7.79;100.00
4598;BME280;62772;48.646;8.906;2023-04-07T10:08:52;96091.09;;;7.58;100.00
4598;BME280;62772;48.646;8.906;2023-04-07T10:13:53;96090.63;;;6.95;100.00
4598;BME280;62772;48.646;8.906;2023-04-07T10:18:54;96084.31;;;6.91;100.00
4598;BME280;62772;48.646;8.906;2023-04-07T10:29:19;96094.25;;;6.99;100.00
4598;BME280;62772;48.646;8.906;2023-04-07T10:51:11;96091.47;;;7.51;100.00
4598;BME280;62772;48.646;8.906;2023-04-07T10:56:13;96091.16;;;7.67;100.00
4598;BME280;62772;48.646;8.906;2023-04-07T11:06:14;96084.84;;;7.90;100.00
4598;BME280;62772;48.646;8.906;2023-04-07T11:11:18;96094.44;;;8.28;100.00
4598;BME280;62772;48.646;8.906;2023-04-07T11:16:19;96090.69;;;8.29;100.00
4598;BME280;62772;48.646;8.906;2023-04-07T11:21:19;96088.56;;;8.17;100.00
4598;BME280;62772;48.646;8.906;2023-04-07T11:26:20;96089.16;;;8.50;100.00
4598;BME280;62772;48.646;8.906;2023-04-07T11:31:24;96091.53;;;8.52;100.00
4598;BME280;62772;48.646;8.906;2023-04-07T11:36:30;96110.84;;;8.58;100.00
4598;BME280;62772;48.646;8.906;2023-04-07T11:41:32;96107.75;;;8.87;100.00
4598;BME280;62772;48.646;8.906;2023-04-07T11:46:33;96116.19;;;8.44;100.00
4598;BME280;62772;48.646;8.906;2023-04-07T11:51:33;96119.75;;;8.25;100.00
4598;BME280;62772;48.646;8.906;2023-04-07T11:56:45;96116.38;;;7.97;100.00
4598;BME280;62772;48.646;8.906;2023-04-07T12:01:46;96114.69;;;8.01;100.00
4598;BME280;62772;48.646;8.906;2023-04-07T12:06:48;96118.72;;;7.98;100.00
4598;BME280;62772;48.646;8.906;2023-04-07T12:11:49;96124.63;;;8.09;100.00
4598;BME280;62772;48.646;8.906;2023-04-07T12:16:49;96122.78;;;7.96;100.00
4598;BME280;62772;48.646;8.906;2023-04-07T12:21:50;96127.03;;;7.83;100.00
4598;BME280;62772;48.646;8.906;2023-04-07T12:26:50;96118.41;;;8.00;100.00
4598;BME280;62772;48.646;8.906;2023-04-07T12:31:51;96137.25;;;8.04;100.00
4598;BME280;62772;48.646;8.906;2023-04-07T12:36:52;96137.94;;;7.95;100.00
4598;BME280;62772;48.646;8.906;2023-04-07T12:41:52;96147.09;;;7.89;100.00
4598;BME280;62772;48.646;8.906;2023-04-07T12:46:52;96148.28;;;7.69;100.00
4598;BME280;62772;48.646;8.906;2023-04-07T12:51:53;96147.91;;;7.62;100.00
4598;BME280;62772;48.646;8.906;2023-04-07T12:56:53;96146.09;;;7.71;100.00
4598;BME280;62772;48.646;8.906;2023-04-07T13:01:54;96140.78;;;7.71;100.00
4598;BME280;62772;48.646;8.906;2023-04-07T13:06:54;96154.09;;;7.57;100.00
4598;BME280;62772;48.646;8.906;2023-04-07T13:11:55;96158.88;;;7.55;100.00
4598;BME280;62772;48.646;8.906;2023-04-07T13:16:57;96163.97;;;7.38;100.00
4598;BME280;62772;48.646;8.906;2023-04-07T13:21:57;96157.63;;;7.53;100.00
4598;BME280;62772;48.646;8.906;2023-04-07T13:26:58;96163.44;;;7.55;100.00
4598;BME280;62772;48.646;8.906;2023-04-07T13:32:05;96155.88;;;7.62;100.00
4598;BME280;62772;48.646;8.906;2023-04-07T13:37:06;96150.25;;;7.63;100.00
4598;BME280;62772;48.646;8.906;2023-04-07T13:42:06;96142.56;;;7.76;100.00
4598;BME280;62772;48.646;8.906;2023-04-07T13:47:08;96144.53;;;7.70;100.00
4598;BME280;62772;48.646;8.906;2023-04-07T13:52:09;96149.16;;;7.78;100.00
4598;BME280;62772;48.646;8.906;2023-04-07T13:57:10;96150.66;;;7.85;100.00
4598;BME280;62772;48.646;8.906;2023-04-07T14:02:11;96141.38;;;7.82;100.00
4598;BME280;62772;48.646;8.906;2023-04-07T14:07:11;96150.63;;;7.98;100.00
4598;BME280;62772;48.646;8.906;2023-04-07T14:12:12;96143.81;;;8.06;100.00
4598;BME280;62772;48.646;8.906;2023-04-07T14:17:13;96139.97;;;8.12;100.00
4598;BME280;62772;48.646;8.906;2023-04-07T14:22:13;96145.00;;;8.00;100.00
4598;BME280;62772;48.646;8.906;2023-04-07T14:27:14;96142.28;;;7.91;100.00
4598;BME280;62772;48.646;8.906;2023-04-07T14:32:20;96140.59;;;7.95;100.00
4598;BME280;62772;48.646;8.906;2023-04-07T14:37:20;96145.94;;;7.95;100.00
4598;BME280;62772;48.646;8.906;2023-04-07T14:42:25;96141.97;;;7.93;100.00
4598;BME280;62772;48.646;8.906;2023-04-07T14:47:25;96140.50;;;8.01;100.00
4598;BME280;62772;48.646;8.906;2023-04-07T14:52:26;96137.53;;;8.02;100.00
4598;BME280;62772;48.646;8.906;2023-04-07T14:57:45;96148.47;;;8.01;100.00
4598;BME280;62772;48.646;8.906;2023-04-07T15:02:45;96145.31;;;7.98;100.00
4598;BME280;62772;48.646;8.906;2023-04-07T15:07:46;96148.59;;;7.95;100.00
4598;BME280;62772;48.646;8.906;2023-04-07T15:12:49;96152.63;;;8.07;100.00
4598;BME280;62772;48.646;8.906;2023-04-07T15:17:49;96154.38;;;7.84;100.00
4598;BME280;62772;48.646;8.906;2023-04-07T15:22:50;96157.03;;;7.97;100.00
4598;BME280;62772;48.646;8.906;2023-04-07T15:27:50;96163.44;;;7.82;100.00
4598;BME280;62772;48.646;8.906;2023-04-07T15:32:58;96162.31;;;7.42;100.00
4598;BME280;62772;48.646;8.906;2023-04-07T15:37:59;96178.53;;;7.26;100.00
4598;BME280;62772;48.646;8.906;2023-04-07T15:42:59;96172.88;;;7.14;100.00
4598;BME280;62772;48.646;8.906;2023-04-07T15:48:00;96179.44;;;7.03;100.00
4598;BME280;62772;48.646;8.906;2023-04-07T15:53:02;96187.41;;;6.84;100.00
4598;BME280;62772;48.646;8.906;2023-04-07T15:58:03;96182.84;;;6.89;100.00
4598;BME280;62772;48.646;8.906;2023-04-07T16:03:04;96183.91;;;6.88;100.00
4598;BME280;62772;48.646;8.906;2023-04-07T16:08:05;96191.88;;;6.88;100.00
4598;BME280;62772;48.646;8.906;2023-04-07T16:13:05;96188.53;;;6.97;100.00
4598;BME280;62772;48.646;8.906;2023-04-07T16:18:07;96187.47;;;6.98;100.00
4598;BME280;62772;48.646;8.906;2023-04-07T16:23:09;96184.03;;;6.97;100.00
4598;BME280;62772;48.646;8.906;2023-04-07T16:28:09;96192.69;;;7.03;100.00
4598;BME280;62772;48.646;8.906;2023-04-07T16:33:10;96194.84;;;7.20;100.00
4598;BME280;62772;48.646;8.906;2023-04-07T16:38:11;96205.19;;;7.02;100.00
4598;BME280;62772;48.646;8.906;2023-04-07T16:43:12;96201.41;;;7.08;100.00
4598;BME280;62772;48.646;8.906;2023-04-07T16:48:12;96207.78;;;7.07;100.00
4598;BME280;62772;48.646;8.906;2023-04-07T16:53:13;96214.19;;;7.06;100.00
4598;BME280;62772;48.646;8.906;2023-04-07T16:58:13;96224.28;;;7.04;100.00
4598;BME280;62772;48.646;8.906;2023-04-07T17:03:20;96225.50;;;7.12;100.00
4598;BME280;62772;48.646;8.906;2023-04-07T17:08:22;96237.13;;;7.16;100.00
4598;BME280;62772;48.646;8.906;2023-04-07T17:13:24;96240.34;;;7.32;100.00
4598;BME280;62772;48.646;8.906;2023-04-07T17:18:25;96249.97;;;7.09;100.00
4598;BME280;62772;48.646;8.906;2023-04-07T17:23:26;96253.66;;;7.13;100.00
4598;BME280;62772;48.646;8.906;2023-04-07T17:28:27;96265.63;;;6.92;100.00
4598;BME280;62772;48.646;8.906;2023-04-07T17:33:29;96272.47;;;7.50;100.00
4598;BME280;62772;48.646;8.906;2023-04-07T17:38:30;96281.50;;;7.49;100.00
4598;BME280;62772;48.646;8.906;2023-04-07T17:43:30;96283.25;;;6.63;100.00
4598;BME280;62772;48.646;8.906;2023-04-07T17:48:31;96277.66;;;6.65;100.00
4598;BME280;62772;48.646;8.906;2023-04-07T17:53:31;96285.75;;;6.54;100.00
4598;BME280;62772;48.646;8.906;2023-04-07T17:58:32;96298.22;;;6.54;100.00
4598;BME280;62772;48.646;8.906;2023-04-07T18:03:33;96297.94;;;6.56;100.00
4598;BME280;62772;48.646;8.906;2023-04-07T18:08:33;96302.09;;;6.43;100.00
4598;BME280;62772;48.646;8.906;2023-04-07T18:13:34;96303.09;;;6.23;100.00
4598;BME280;62772;48.646;8.906;2023-04-07T18:18:35;96320.75;;;6.32;100.00
4598;BME280;62772;48.646;8.906;2023-04-07T18:23:37;96322.13;;;6.01;100.00
4598;BME280;62772;48.646;8.906;2023-04-07T18:28:37;96323.25;;;5.89;100.00
4598;BME280;62772;48.646;8.906;2023-04-07T18:33:38;96341.34;;;5.82;100.00
4598;BME280;62772;48.646;8.906;2023-04-07T18:38:38;96347.25;;;5.74;100.00
4598;BME280;62772;48.646;8.906;2023-04-07T18:43:39;96365.25;;;5.77;100.00
4598;BME280;62772;48.646;8.906;2023-04-07T18:48:40;96359.38;;;5.80;100.00
4598;BME280;62772;48.646;8.906;2023-04-07T18:53:43;96361.09;;;5.66;100.00
4598;BME280;62772;48.646;8.906;2023-04-07T18:58:44;96362.13;;;5.70;100.00
4598;BME280;62772;48.646;8.906;2023-04-07T19:03:45;96382.91;;;5.87;100.00
4598;BME280;62772;48.646;8.906;2023-04-07T19:08:45;96377.91;;;5.45;100.00
4598;BME280;62772;48.646;8.906;2023-04-07T19:13:46;96391.72;;;5.42;100.00
4598;BME280;62772;48.646;8.906;2023-04-07T19:18:48;96395.47;;;5.36;100.00
4598;BME280;62772;48.646;8.906;2023-04-07T19:23:48;96398.13;;;5.36;100.00
4598;BME280;62772;48.646;8.906;2023-04-07T19:28:49;96398.53;;;5.54;100.00
4598;BME280;62772;48.646;8.906;2023-04-07T19:33:49;96409.06;;;5.64;100.00
4598;BME280;62772;48.646;8.906;2023-04-07T19:38:50;96413.34;;;5.60;100.00
4598;BME280;62772;48.646;8.906;2023-04-07T19:43:51;96416.41;;;5.77;100.00
4598;BME280;62772;48.646;8.906;2023-04-07T19:48:52;96412.84;;;5.92;100.00
4598;BME280;62772;48.646;8.906;2023-04-07T19:53:52;96424.69;;;6.05;100.00
4598;BME280;62772;48.646;8.906;2023-04-07T19:58:53;96420.59;;;6.18;100.00
4598;BME280;62772;48.646;8.906;2023-04-07T20:03:53;96425.91;;;6.18;100.00
4598;BME280;62772;48.646;8.906;2023-04-07T20:08:54;96432.09;;;6.38;100.00
4598;BME280;62772;48.646;8.906;2023-04-07T20:13:54;96420.44;;;6.63;100.00
4598;BME280;62772;48.646;8.906;2023-04-07T20:18:55;96433.22;;;6.31;100.00
4598;BME280;62772;48.646;8.906;2023-04-07T20:23:55;96434.06;;;6.27;100.00
4598;BME280;62772;48.646;8.906;2023-04-07T20:28:56;96436.09;;;6.06;100.00
4598;BME280;62772;48.646;8.906;2023-04-07T20:33:57;96433.00;;;5.88;100.00
4598;BME280;62772;48.646;8.906;2023-04-07T20:38:58;96434.72;;;5.69;100.00
4598;BME280;62772;48.646;8.906;2023-04-07T20:43:58;96437.34;;;6.13;100.00
4598;BME280;62772;48.646;8.906;2023-04-07T20:48:59;96433.09;;;6.12;100.00
4598;BME280;62772;48.646;8.906;2023-04-07T20:53:59;96437.38;;;5.69;100.00
4598;BME280;62772;48.646;8.906;2023-04-07T20:59:00;96426.09;;;5.92;100.00
4598;BME280;62772;48.646;8.906;2023-04-07T21:04:00;96437.06;;;6.15;100.00
4598;BME280;62772;48.646;8.906;2023-04-07T21:09:01;96445.69;;;5.96;100.00
4598;BME280;62772;48.646;8.906;2023-04-07T21:14:04;96447.34;;;6.27;100.00
4598;BME280;62772;48.646;8.906;2023-04-07T21:19:05;96447.88;;;6.24;100.00
4598;BME280;62772;48.646;8.906;2023-04-07T21:24:05;96447.13;;;6.18;100.00
4598;BME280;62772;48.646;8.906;2023-04-07T21:29:06;96450.25;;;6.25;100.00
4598;BME280;62772;48.646;8.906;2023-04-07T21:34:06;96451.53;;;5.98;100.00
4598;BME280;62772;48.646;8.906;2023-04-07T21:39:07;96455.69;;;6.10;100.00
4598;BME280;62772;48.646;8.906;2023-04-07T21:44:08;96456.94;;;5.78;100.00
4598;BME280;62772;48.646;8.906;2023-04-07T21:49:09;96453.44;;;5.43;100.00
4598;BME280;62772;48.646;8.906;2023-04-07T21:54:10;96449.53;;;5.75;100.00
4598;BME280;62772;48.646;8.906;2023-04-07T21:59:11;96460.56;;;5.92;100.00
4598;BME280;62772;48.646;8.906;2023-04-07T22:04:12;96453.88;;;5.95;100.00
4598;BME280;62772;48.646;8.906;2023-04-07T22:09:12;96454.88;;;5.64;100.00
4598;BME280;62772;48.646;8.906;2023-04-07T22:14:13;96458.94;;;6.02;100.00
4598;BME280;62772;48.646;8.906;2023-04-07T22:19:13;96464.03;;;5.88;100.00
4598;BME280;62772;48.646;8.906;2023-04-07T22:24:14;96462.34;;;5.57;100.00
4598;BME280;62772;48.646;8.906;2023-04-07T22:29:14;96459.63;;;5.68;100.00
4598;BME280;62772;48.646;8.906;2023-04-07T22:34:15;96457.22;;;5.76;100.00
4598;BME280;62772;48.646;8.906;2023-04-07T22:39:15;96456.34;;;5.86;100.00
4598;BME280;62772;48.646;8.906;2023-04-07T22:44:16;96463.06;;;5.73;100.00
4598;BME280;62772;48.646;8.906;2023-04-07T22:49:16;96458.22;;;5.80;100.00
4598;BME280;62772;48.646;8.906;2023-04-07T22:54:17;96471.97;;;5.88;100.00
4598;BME280;62772;48.646;8.906;2023-04-07T22:59:17;96473.59;;;5.84;100.00
4598;BME280;62772;48.646;8.906;2023-04-07T23:04:19;96476.13;;;5.59;100.00
4598;BME280;62772;48.646;8.906;2023-04-07T23:09:20;96471.06;;;5.63;100.00
4598;BME280;62772;48.646;8.906;2023-04-07T23:14:20;96478.28;;;5.52;100.00
4598;BME280;62772;48.646;8.906;2023-04-07T23:19:20;96471.66;;;5.50;100.00
4598;BME280;62772;48.646;8.906;2023-04-07T23:24:21;96478.81;;;5.44;100.00
4598;BME280;62772;48.646;8.906;2023-04-07T23:29:21;96472.41;;;5.60;100.00
4598;BME280;62772;48.646;8.906;2023-04-07T23:34:22;96478.53;;;5.56;100.00
4598;BME280;62772;48.646;8.906;2023-04-07T23:39:22;96477.34;;;5.77;100.00
4598;BME280;62772;48.646;8.906;2023-04-07T23:44:23;96480.00;;;5.72;100.00
4598;BME280;62772;48.646;8.906;2023-04-07T23:49:23;96479.78;;;5.69;100.00
4598;BME280;62772;48.646;8.906;2023-04-07T23:54:23;96476.78;;;6.25;100.00
4598;BME280;62772;48.646;8.906;2023-04-07T23:59:24;96480.25;;;5.81;100.00
